Time;durP1;ratioP1;P1;durP2;ratioP2;P2;SDS_P1;SDS_P2;PMS_P1;PMS_P2;Temp;Humidity;BMP_temperature;BMP_pressure;BME280_temperature;BME280_humidity;BME280_pressure;Samples;Min_cycle;Max_cycle;Signal;HPM_P1;HPM_P2
2022/04/01 00:00:09;;;;;;;2.55;1.25;;;0.90;99.90;;;;;;5047779;28;20037;-60
2022/04/01 00:02:36;;;;;;;3.85;1.30;;;0.90;99.90;;;;;;5048372;28;20032;-61
2022/04/01 00:05:03;;;;;;;2.80;1.52;;;0.90;99.90;;;;;;5048369;28;20032;-60
2022/04/01 00:07:29;;;;;;;2.95;1.23;;;0.90;99.90;;;;;;5048013;28;20033;-61
2022/04/01 00:09:55;;;;;;;2.67;1.70;;;0.80;99.90;;;;;;5047368;28;20404;-61
2022/04/01 00:12:20;;;;;;;3.00;1.77;;;0.80;99.90;;;;;;5048148;28;20064;-59
2022/04/01 00:14:46;;;;;;;4.07;1.88;;;0.80;99.90;;;;;;5047995;28;20032;-62
2022/04/01 00:17:11;;;;;;;4.93;1.98;;;0.80;99.90;;;;;;5047724;28;20063;-60
2022/04/01 00:19:37;;;;;;;4.18;1.73;;;0.80;99.90;;;;;;5047566;28;20396;-60
2022/04/01 00:22:04;;;;;;;2.85;1.85;;;0.80;99.90;;;;;;5047131;28;20029;-60
2022/04/01 00:24:30;;;;;;;3.50;1.67;;;0.70;99.90;;;;;;5048246;28;20116;-60
2022/04/01 00:26:56;;;;;;;3.00;1.98;;;0.80;99.90;;;;;;5047625;28;20117;-61
2022/04/01 00:29:22;;;;;;;4.95;2.30;;;0.70;99.90;;;;;;5047849;28;20112;-60
2022/04/01 00:31:49;;;;;;;4.25;1.95;;;0.70;99.90;;;;;;5046531;28;20123;-60
2022/04/01 00:34:16;;;;;;;3.05;1.65;;;0.70;99.90;;;;;;5047791;28;20064;-59
2022/04/01 00:36:49;;;;;;;3.30;1.58;;;0.70;99.90;;;;;;5047303;28;20543;-59
2022/04/01 00:39:17;;;;;;;2.00;1.25;;;0.70;99.90;;;;;;5047804;28;20056;-62
2022/04/01 00:41:44;;;;;;;2.97;1.58;;;0.70;99.90;;;;;;5046341;28;20453;-60
2022/04/01 00:44:15;;;;;;;2.38;1.50;;;0.70;99.90;;;;;;5048855;28;20496;-60
2022/04/01 00:46:42;;;;;;;3.40;1.80;;;0.70;99.90;;;;;;5029381;28;20029;-60
2022/04/01 00:49:08;;;;;;;3.97;1.65;;;0.60;99.90;;;;;;5029671;28;20037;-62
2022/04/01 00:51:34;;;;;;;4.82;1.70;;;0.60;99.90;;;;;;5046246;28;20404;-61
2022/04/01 00:53:59;;;;;;;4.95;2.05;;;0.60;99.90;;;;;;5046897;28;20593;-60
2022/04/01 00:56:31;;;;;;;4.05;2.15;;;0.60;99.90;;;;;;5047300;28;20033;-61
2022/04/01 00:58:57;;;;;;;4.05;1.60;;;0.70;99.90;;;;;;5047139;28;20041;-60
2022/04/01 01:01:23;;;;;;;4.07;1.98;;;0.70;99.90;;;;;;5041908;28;20072;-62
2022/04/01 01:03:50;;;;;;;3.70;1.70;;;0.60;99.90;;;;;;5038771;28;20037;-60
2022/04/01 01:06:18;;;;;;;2.88;1.50;;;0.60;99.90;;;;;;5035806;28;20033;-60
2022/04/01 01:08:44;;;;;;;3.15;1.77;;;0.60;99.90;;;;;;5033821;28;20110;-59
2022/04/01 01:11:09;;;;;;;3.55;1.88;;;0.50;99.90;;;;;;5035941;28;20496;-62
2022/04/01 01:13:35;;;;;;;4.00;2.10;;;0.50;99.90;;;;;;5039835;28;20090;-60
2022/04/01 01:16:01;;;;;;;3.20;1.77;;;0.60;99.90;;;;;;5036231;28;20029;-62
2022/04/01 01:18:27;;;;;;;4.47;2.05;;;0.60;99.90;;;;;;5037961;28;20043;-60
2022/04/01 01:20:52;;;;;;;3.90;2.13;;;0.60;99.90;;;;;;5034383;28;20524;-60
2022/04/01 01:23:18;;;;;;;4.40;2.35;;;0.60;99.90;;;;;;5038756;28;20522;-60
2022/04/01 01:25:45;;;;;;;5.68;1.80;;;0.60;99.90;;;;;;5035496;28;20456;-60
2022/04/01 01:28:11;;;;;;;8.68;2.00;;;0.60;99.90;;;;;;5037610;28;20048;-60
2022/04/01 01:30:37;;;;;;;5.05;2.38;;;0.60;99.90;;;;;;5035872;28;20396;-60
2022/04/01 01:33:04;;;;;;;3.70;2.13;;;0.60;99.90;;;;;;5035445;28;20048;-60
2022/04/01 01:35:30;;;;;;;4.45;2.40;;;0.60;99.90;;;;;;5039656;28;20078;-59
2022/04/01 01:37:55;;;;;;;9.60;2.00;;;0.50;99.90;;;;;;5034983;28;20433;-60
2022/04/01 01:40:22;;;;;;;5.68;2.10;;;0.60;99.90;;;;;;5037963;28;20065;-60
2022/04/01 01:42:48;;;;;;;5.10;2.17;;;0.60;99.90;;;;;;5041947;28;20025;-62
2022/04/01 01:45:15;;;;;;;5.00;2.28;;;0.60;99.90;;;;;;5046725;28;20056;-60
2022/04/01 01:47:41;;;;;;;3.33;2.00;;;0.60;99.90;;;;;;5046420;28;20029;-61
2022/04/01 01:55:36;;;;;;;3.13;1.75;;;0.50;99.90;;;;;;5047151;28;20050;-62
2022/04/01 01:58:03;;;;;;;7.95;3.00;;;0.50;99.90;;;;;;5045802;28;20029;-60
2022/04/01 02:00:29;;;;;;;4.40;2.25;;;0.50;99.90;;;;;;5045806;28;20025;-59
2022/04/01 02:02:56;;;;;;;5.60;2.50;;;0.50;99.90;;;;;;5046798;28;20397;-60
2022/04/01 02:05:21;;;;;;;5.45;2.40;;;0.60;99.90;;;;;;5050808;28;20033;-60
2022/04/01 02:07:47;;;;;;;3.75;2.13;;;0.60;99.90;;;;;;5049559;28;20037;-61
2022/04/01 02:10:16;;;;;;;4.65;2.15;;;0.60;99.90;;;;;;5031694;28;20029;-60
2022/04/01 02:12:43;;;;;;;3.85;2.15;;;0.60;99.90;;;;;;5050374;28;20037;-60
2022/04/01 02:15:13;;;;;;;4.28;1.92;;;0.60;99.90;;;;;;5050247;28;20026;-61
2022/04/01 02:17:41;;;;;;;4.85;2.65;;;0.60;99.90;;;;;;5049915;28;20508;-59
2022/04/01 02:20:10;;;;;;;4.75;2.50;;;0.60;99.90;;;;;;5049573;28;20033;-61
2022/04/01 02:22:37;;;;;;;6.40;2.30;;;0.60;99.90;;;;;;5032738;28;20409;-60
2022/04/01 02:25:07;;;;;;;6.25;2.25;;;0.60;99.90;;;;;;5050404;28;20040;-60
2022/04/01 02:27:33;;;;;;;4.05;2.25;;;0.50;99.90;;;;;;5050128;28;20056;-60
2022/04/01 02:29:59;;;;;;;4.32;2.22;;;0.60;99.90;;;;;;5049744;28;20033;-61
2022/04/01 02:32:25;;;;;;;6.07;2.58;;;0.50;99.90;;;;;;5050485;28;20052;-62
2022/04/01 02:34:51;;;;;;;6.82;2.50;;;0.50;99.90;;;;;;5050532;28;20040;-60
2022/04/01 02:37:21;;;;;;;7.55;2.45;;;0.50;99.90;;;;;;5050366;28;20504;-60
2022/04/01 02:39:47;;;;;;;2.72;1.73;;;0.50;99.90;;;;;;5049291;28;20028;-60
2022/04/01 02:42:12;;;;;;;6.93;3.10;;;0.50;99.90;;;;;;5043398;28;20158;-60
2022/04/01 02:44:38;;;;;;;4.15;2.10;;;0.60;99.90;;;;;;5038437;28;20526;-59
2022/04/01 02:47:04;;;;;;;6.03;2.47;;;0.50;99.90;;;;;;5040532;28;20033;-62
2022/04/01 02:49:29;;;;;;;4.00;2.03;;;0.50;99.90;;;;;;5039097;28;20576;-61
2022/04/01 02:51:55;;;;;;;6.35;2.70;;;0.50;99.90;;;;;;5037137;28;20211;-61
2022/04/01 02:54:21;;;;;;;5.55;2.35;;;0.50;99.90;;;;;;5038684;28;20083;-60
2022/04/01 02:56:47;;;;;;;3.65;1.90;;;0.50;99.90;;;;;;5040804;28;20025;-60
2022/04/01 02:59:12;;;;;;;3.83;2.20;;;0.50;99.90;;;;;;5041627;28;20041;-60
2022/04/01 03:01:40;;;;;;;4.43;2.17;;;0.50;99.90;;;;;;5037219;28;20370;-60
2022/04/01 03:04:09;;;;;;;4.60;1.80;;;0.60;99.90;;;;;;5040219;28;20044;-60
2022/04/01 03:06:38;;;;;;;4.20;2.30;;;0.60;99.90;;;;;;5038774;28;20112;-60
2022/04/01 03:09:05;;;;;;;5.65;2.42;;;0.50;99.90;;;;;;5039248;28;20136;-62
2022/04/01 03:11:31;;;;;;;4.55;2.08;;;0.50;99.90;;;;;;5038527;28;20052;-60
2022/04/01 03:13:57;;;;;;;4.70;2.13;;;0.60;99.90;;;;;;5041424;28;20033;-60
2022/04/01 03:16:23;;;;;;;5.82;2.42;;;0.60;99.90;;;;;;5038265;28;20114;-62
2022/04/01 03:18:48;;;;;;;9.85;2.55;;;0.60;99.90;;;;;;5039945;28;20116;-61
2022/04/01 03:21:14;;;;;;;4.28;2.13;;;0.60;99.90;;;;;;5037045;28;20042;-60
2022/04/01 03:23:41;;;;;;;5.03;2.33;;;0.50;99.90;;;;;;5040637;28;20851;-60
2022/04/01 03:26:07;;;;;;;5.88;2.25;;;0.50;99.90;;;;;;5049324;28;20124;-60
2022/04/01 03:28:34;;;;;;;6.35;2.20;;;0.50;99.90;;;;;;5031379;28;20700;-60
2022/04/01 03:31:00;;;;;;;5.63;2.60;;;0.60;99.90;;;;;;5047758;28;20037;-60
2022/04/01 03:33:25;;;;;;;4.68;2.38;;;0.50;99.90;;;;;;5049058;28;20041;-60
2022/04/01 03:35:52;;;;;;;3.83;2.00;;;0.60;99.90;;;;;;5048701;28;20040;-60
2022/04/01 03:38:17;;;;;;;3.92;2.17;;;0.60;99.90;;;;;;5049015;28;20052;-60
2022/04/01 03:40:47;;;;;;;5.05;2.00;;;0.60;99.90;;;;;;5047491;28;20635;-60
2022/04/01 03:43:13;;;;;;;5.53;2.20;;;0.60;99.90;;;;;;5045868;28;20037;-60
2022/04/01 03:45:45;;;;;;;5.15;2.42;;;0.60;99.90;;;;;;5044658;28;20443;-61
2022/04/01 03:48:34;;;;;;;4.85;2.30;;;0.50;99.90;;;;;;5045298;28;20055;-60
2022/04/01 03:51:01;;;;;;;5.05;2.30;;;0.60;99.90;;;;;;5046304;28;20040;-60
2022/04/01 03:53:31;;;;;;;8.20;2.47;;;0.60;99.90;;;;;;5049038;28;20128;-61
2022/04/01 03:55:58;;;;;;;5.38;2.70;;;0.60;99.90;;;;;;5047750;28;20040;-60
2022/04/01 03:58:33;;;;;;;3.80;1.98;;;0.60;99.90;;;;;;5048413;28;20037;-60
2022/04/01 04:01:00;;;;;;;8.00;3.22;;;0.60;99.90;;;;;;5047123;28;20024;-60
2022/04/01 04:03:27;;;;;;;3.83;1.88;;;0.60;99.90;;;;;;5048804;28;20037;-62
2022/04/01 04:05:54;;;;;;;4.47;2.47;;;0.60;99.90;;;;;;5048106;28;20029;-60
2022/04/01 04:08:22;;;;;;;4.40;2.15;;;0.60;99.90;;;;;;5048615;28;20505;-61
2022/04/01 04:10:49;;;;;;;7.43;2.15;;;0.60;99.90;;;;;;5046340;28;20045;-61
2022/04/01 04:13:16;;;;;;;5.72;2.15;;;0.60;99.90;;;;;;5048381;28;20128;-61
2022/04/01 04:16:09;;;;;;;8.15;2.63;;;0.60;99.90;;;;;;5047936;28;20112;-60
2022/04/01 04:19:16;;;;;;;5.13;1.90;;;0.60;99.90;;;;;;5040957;28;20124;-61
2022/04/01 04:21:54;;;;;;;9.00;2.55;;;0.60;99.90;;;;;;5043176;28;20041;-60
2022/04/01 04:24:36;;;;;;;4.00;2.05;;;0.60;99.90;;;;;;5048062;28;20028;-60
2022/04/01 04:27:11;;;;;;;5.13;2.15;;;0.60;99.90;;;;;;5047590;28;20051;-61
2022/04/01 04:29:47;;;;;;;5.00;1.90;;;0.60;99.90;;;;;;5047693;28;20515;-60
2022/04/01 04:32:33;;;;;;;7.13;2.35;;;0.60;99.90;;;;;;5025996;28;20044;-60
2022/04/01 04:35:04;;;;;;;5.00;2.45;;;0.70;99.90;;;;;;5047527;28;20053;-60
2022/04/01 04:37:34;;;;;;;6.20;2.30;;;0.70;99.90;;;;;;5048176;28;20048;-61
2022/04/01 04:40:01;;;;;;;4.53;2.42;;;0.70;99.90;;;;;;5046101;28;20635;-60
2022/04/01 04:42:27;;;;;;;7.18;2.92;;;0.70;99.90;;;;;;5047087;28;20040;-61
2022/04/01 04:44:53;;;;;;;6.45;2.70;;;0.70;99.90;;;;;;5047264;28;20032;-60
2022/04/01 04:47:28;;;;;;;6.38;2.17;;;0.70;99.90;;;;;;5029757;28;20121;-60
2022/04/01 04:49:56;;;;;;;4.97;2.15;;;0.70;99.90;;;;;;5046009;28;20021;-60
2022/04/01 04:52:28;;;;;;;7.10;3.03;;;0.70;99.90;;;;;;5047611;28;20045;-60
2022/04/01 04:54:55;;;;;;;6.30;2.20;;;0.70;99.90;;;;;;5046832;28;20485;-60
2022/04/01 04:57:21;;;;;;;6.95;2.47;;;0.70;99.90;;;;;;5047569;28;20049;-60
2022/04/01 04:59:49;;;;;;;5.68;1.90;;;0.70;99.90;;;;;;5046662;28;20062;-61
2022/04/01 05:02:44;;;;;;;5.65;2.55;;;0.70;99.90;;;;;;5047528;28;20508;-61
2022/04/01 05:05:18;;;;;;;6.03;2.33;;;0.70;99.90;;;;;;5043599;28;20107;-61
2022/04/01 05:08:22;;;;;;;4.20;2.00;;;0.70;99.90;;;;;;5047477;28;20563;-62
2022/04/01 05:11:16;;;;;;;3.67;1.88;;;0.70;99.90;;;;;;5043442;28;20025;-63
2022/04/01 05:14:05;;;;;;;3.92;1.90;;;0.70;99.90;;;;;;5043908;28;20033;-62
2022/04/01 05:16:32;;;;;;;4.88;2.65;;;0.70;99.90;;;;;;5047223;28;20382;-63
2022/04/01 05:19:09;;;;;;;4.72;2.30;;;0.70;99.90;;;;;;5028839;28;20394;-62
2022/04/01 05:21:47;;;;;;;3.53;1.83;;;0.70;99.90;;;;;;5042499;28;20171;-64
2022/04/01 05:24:22;;;;;;;4.68;2.63;;;0.70;99.90;;;;;;5044616;28;20060;-62
2022/04/01 05:26:52;;;;;;;3.75;1.73;;;0.70;99.90;;;;;;5046655;28;20370;-63
2022/04/01 05:29:31;;;;;;;3.58;1.67;;;0.70;99.90;;;;;;5047585;28;20084;-63
2022/04/01 05:32:07;;;;;;;4.78;1.75;;;0.70;99.90;;;;;;5045884;28;20091;-63
2022/04/01 05:34:34;;;;;;;4.93;1.85;;;0.80;99.90;;;;;;5043464;28;20037;-61
2022/04/01 05:37:01;;;;;;;5.22;1.88;;;0.80;99.90;;;;;;5046696;28;20029;-61
2022/04/01 05:39:28;;;;;;;3.45;1.75;;;0.70;99.90;;;;;;5052248;28;20029;-63
2022/04/01 05:41:54;;;;;;;5.25;1.92;;;0.80;99.90;;;;;;5050880;28;20033;-63
2022/04/01 05:44:20;;;;;;;5.25;1.92;;;0.70;99.90;;;;;;5053920;28;20116;-62
2022/04/01 05:46:47;;;;;;;4.15;1.90;;;0.70;99.90;;;;;;5053092;28;20075;-63
2022/04/01 05:49:15;;;;;;;8.23;1.67;;;0.70;99.90;;;;;;5053584;28;20951;-63
2022/04/01 05:51:41;;;;;;;3.08;1.50;;;0.70;99.90;;;;;;5052308;28;20029;-62
2022/04/01 05:54:09;;;;;;;3.22;1.23;;;0.70;99.90;;;;;;5053080;28;20041;-62
2022/04/01 05:56:37;;;;;;;2.88;1.00;;;0.70;99.90;;;;;;5053454;28;20036;-62
2022/04/01 05:59:03;;;;;;;4.10;1.88;;;0.70;99.90;;;;;;5049586;28;20087;-62
2022/04/01 06:01:45;;;;;;;3.88;1.30;;;0.70;99.90;;;;;;5052763;28;20029;-61
2022/04/01 06:04:36;;;;;;;3.13;1.63;;;0.70;99.90;;;;;;5050969;28;20086;-62
2022/04/01 06:07:20;;;;;;;5.43;1.65;;;0.70;99.90;;;;;;5049069;28;20099;-61
2022/04/01 06:09:57;;;;;;;4.55;1.35;;;0.70;99.90;;;;;;5050673;28;20033;-61
2022/04/01 06:12:37;;;;;;;3.45;1.25;;;0.70;99.90;;;;;;5053448;28;20037;-62
2022/04/01 06:15:09;;;;;;;2.80;1.60;;;0.70;99.90;;;;;;5049437;28;20074;-62
2022/04/01 06:18:02;;;;;;;2.58;1.60;;;0.70;99.90;;;;;;5050337;28;20045;-62
2022/04/01 06:20:31;;;;;;;2.70;1.05;;;0.80;99.90;;;;;;5052580;28;20033;-61
2022/04/01 06:23:38;;;;;;;6.53;2.42;;;0.80;99.90;;;;;;5052557;28;20037;-61
2022/04/01 06:26:11;;;;;;;4.10;1.15;;;0.80;99.90;;;;;;5041489;28;20116;-61
2022/04/01 06:28:47;;;;;;;7.18;1.60;;;0.80;99.90;;;;;;5051285;28;20028;-61
2022/04/01 06:31:13;;;;;;;4.70;1.70;;;0.80;99.90;;;;;;5052513;28;20507;-61
2022/04/01 06:34:03;;;;;;;1.85;0.95;;;0.80;99.90;;;;;;5052972;28;20043;-61
2022/04/01 06:36:37;;;;;;;3.58;1.42;;;0.80;99.90;;;;;;5053538;28;20489;-61
2022/04/01 06:39:08;;;;;;;4.45;1.27;;;0.90;99.90;;;;;;5049437;28;20119;-61
2022/04/01 06:41:47;;;;;;;10.82;4.53;;;0.90;99.90;;;;;;5051771;28;20036;-62
2022/04/01 06:44:13;;;;;;;10.82;4.45;;;0.90;99.90;;;;;;5048888;28;20052;-62
2022/04/01 06:46:38;;;;;;;9.27;2.97;;;0.90;99.90;;;;;;5042159;28;20079;-63
2022/04/01 06:49:08;;;;;;;4.85;1.60;;;1.00;99.90;;;;;;5044160;28;20405;-62
2022/04/01 06:51:38;;;;;;;5.17;2.47;;;1.00;99.90;;;;;;5037541;28;20097;-63
2022/04/01 06:54:05;;;;;;;2.10;1.15;;;1.00;99.90;;;;;;5040950;28;20037;-62
2022/04/01 06:56:31;;;;;;;3.92;1.48;;;1.00;99.90;;;;;;5020470;28;20041;-63
2022/04/01 06:58:57;;;;;;;2.88;1.20;;;1.10;99.90;;;;;;5041083;28;20124;-63
2022/04/01 07:01:23;;;;;;;5.13;2.58;;;1.20;99.90;;;;;;5020260;28;20152;-63
2022/04/01 07:03:48;;;;;;;2.65;0.85;;;1.30;99.90;;;;;;5042189;28;20136;-65
2022/04/01 07:06:15;;;;;;;2.40;0.82;;;1.30;99.90;;;;;;5043693;28;20036;-65
2022/04/01 07:08:42;;;;;;;2.50;0.88;;;1.40;99.90;;;;;;5040274;28;20091;-69
2022/04/01 07:11:08;;;;;;;6.70;1.60;;;1.40;99.90;;;;;;5039126;28;20444;-66
2022/04/01 07:13:33;;;;;;;10.40;2.35;;;1.40;99.90;;;;;;5046982;28;20037;-66
2022/04/01 07:15:59;;;;;;;13.63;4.10;;;1.50;99.90;;;;;;5048777;28;20389;-65
2022/04/01 07:18:24;;;;;;;15.88;4.82;;;1.50;99.90;;;;;;5048399;28;20567;-68
2022/04/01 07:20:52;;;;;;;14.50;3.70;;;1.60;99.90;;;;;;5047777;28;20029;-66
2022/04/01 07:23:17;;;;;;;11.98;2.83;;;1.70;99.90;;;;;;5048743;28;20032;-65
2022/04/01 07:25:43;;;;;;;6.90;2.58;;;1.70;99.90;;;;;;5029904;28;20090;-65
2022/04/01 07:28:09;;;;;;;5.70;2.45;;;1.80;99.90;;;;;;5038239;28;20115;-64
2022/04/01 07:30:35;;;;;;;7.38;1.90;;;1.90;99.90;;;;;;5039210;28;20401;-64
2022/04/01 07:33:03;;;;;;;4.93;1.00;;;2.00;99.90;;;;;;5039465;28;20497;-63
2022/04/01 07:35:30;;;;;;;3.17;1.00;;;2.20;99.90;;;;;;5022155;28;20856;-64
2022/04/01 07:37:56;;;;;;;3.35;0.60;;;2.40;99.90;;;;;;5041742;28;20122;-65
2022/04/01 07:40:24;;;;;;;3.50;0.70;;;2.50;99.90;;;;;;5042419;28;20087;-65
2022/04/01 07:42:50;;;;;;;8.32;0.70;;;2.70;99.90;;;;;;5043381;28;20485;-64
2022/04/01 07:45:17;;;;;;;1.67;0.80;;;2.80;99.90;;;;;;5041474;28;20167;-64
2022/04/01 07:47:44;;;;;;;2.22;0.85;;;2.90;99.90;;;;;;5039845;28;20520;-63
2022/04/01 07:50:11;;;;;;;1.20;0.63;;;3.10;99.90;;;;;;5043501;28;20048;-63
2022/04/01 07:52:40;;;;;;;2.40;0.50;;;3.00;99.90;;;;;;5042040;28;20041;-62
2022/04/01 07:55:09;;;;;;;2.60;0.65;;;3.00;99.90;;;;;;5041454;28;20037;-62
2022/04/01 07:57:35;;;;;;;5.38;1.45;;;3.10;99.90;;;;;;5043393;28;20037;-61
2022/04/01 08:00:01;;;;;;;2.55;0.70;;;3.00;99.90;;;;;;5040810;28;20028;-62
2022/04/01 08:02:27;;;;;;;3.38;1.02;;;3.00;99.90;;;;;;5036372;28;20030;-62
2022/04/01 08:04:53;;;;;;;1.08;0.50;;;3.00;99.90;;;;;;5037201;28;20108;-61
2022/04/01 08:07:18;;;;;;;1.15;0.28;;;2.90;99.90;;;;;;5034702;28;20057;-62
2022/04/01 08:09:44;;;;;;;2.60;0.63;;;3.00;99.90;;;;;;5032538;28;20080;-63
2022/04/01 08:12:10;;;;;;;7.57;0.50;;;2.90;99.90;;;;;;5035813;28;20053;-61
2022/04/01 08:14:37;;;;;;;3.25;0.63;;;2.90;99.90;;;;;;5020217;28;20545;-61
2022/04/01 08:17:04;;;;;;;2.80;0.68;;;2.90;99.90;;;;;;5026517;28;20547;-61
2022/04/01 08:19:30;;;;;;;4.15;0.73;;;2.90;99.90;;;;;;5036656;28;20279;-60
2022/04/01 08:21:58;;;;;;;7.55;0.57;;;3.00;99.90;;;;;;5034938;28;20902;-61
2022/04/01 08:24:24;;;;;;;1.27;0.40;;;2.90;99.90;;;;;;5036298;28;20104;-61
2022/04/01 08:26:51;;;;;;;0.57;0.38;;;2.90;99.90;;;;;;5037399;28;20053;-60
2022/04/01 08:29:17;;;;;;;3.30;1.23;;;2.90;99.90;;;;;;5033050;28;20037;-59
2022/04/01 08:31:43;;;;;;;1.95;0.60;;;3.00;99.90;;;;;;5034802;28;20119;-60
2022/04/01 08:34:10;;;;;;;1.75;0.57;;;3.00;99.90;;;;;;5035142;28;20049;-59
2022/04/01 08:36:36;;;;;;;1.60;0.50;;;3.00;99.90;;;;;;5035446;28;20470;-62
2022/04/01 08:39:03;;;;;;;1.73;0.50;;;3.00;99.90;;;;;;5033609;28;20108;-60
2022/04/01 08:41:28;;;;;;;1.33;0.43;;;3.00;99.90;;;;;;5034798;28;20079;-60
2022/04/01 08:43:54;;;;;;;1.85;0.32;;;3.10;99.90;;;;;;5044239;28;20037;-60
2022/04/01 08:46:21;;;;;;;2.75;0.52;;;3.30;99.90;;;;;;5036780;28;20650;-59
2022/04/01 08:48:48;;;;;;;0.82;0.20;;;3.30;99.90;;;;;;5040088;28;20068;-60
2022/04/01 08:51:14;;;;;;;1.85;0.45;;;3.30;99.90;;;;;;5045257;28;20104;-59
2022/04/01 08:53:43;;;;;;;1.45;0.38;;;3.40;99.90;;;;;;5045572;28;20047;-60
2022/04/01 08:56:09;;;;;;;0.68;0.30;;;3.50;99.90;;;;;;5046357;28;20071;-59
2022/04/01 08:58:35;;;;;;;2.40;0.68;;;3.60;99.90;;;;;;5046374;28;20044;-61
2022/04/01 09:01:03;;;;;;;1.52;0.40;;;3.70;99.90;;;;;;5045442;28;20040;-59
2022/04/01 09:03:29;;;;;;;1.13;0.40;;;3.70;99.90;;;;;;5046517;28;20396;-58
2022/04/01 09:05:57;;;;;;;1.10;0.35;;;3.70;99.90;;;;;;5014641;28;20039;-61
2022/04/01 09:08:37;;;;;;;2.78;0.43;;;3.80;99.90;;;;;;5041105;28;20382;-61
2022/04/01 09:11:18;;;;;;;2.20;0.68;;;3.80;99.90;;;;;;5042552;28;20028;-70
2022/04/01 09:13:43;;;;;;;0.50;0.20;;;3.70;99.90;;;;;;5044136;28;20041;-59
2022/04/01 09:16:32;;;;;;;0.77;0.32;;;3.70;99.90;;;;;;5046205;28;20052;-59
2022/04/01 09:19:00;;;;;;;2.85;0.70;;;3.70;99.90;;;;;;5042297;28;20548;-59
2022/04/01 09:21:28;;;;;;;3.20;0.60;;;3.70;99.90;;;;;;5046580;28;20824;-59
2022/04/01 09:23:54;;;;;;;2.30;0.50;;;3.80;99.90;;;;;;5028615;28;20098;-59
2022/04/01 09:26:34;;;;;;;1.73;0.52;;;3.80;99.90;;;;;;5047432;28;20025;-59
2022/04/01 09:29:00;;;;;;;1.55;0.60;;;3.80;99.90;;;;;;5043796;28;20037;-60
2022/04/01 09:31:38;;;;;;;1.50;0.40;;;3.80;99.90;;;;;;5046710;28;20025;-60
2022/04/01 09:34:09;;;;;;;2.78;0.75;;;3.80;99.90;;;;;;5046085;28;20052;-61
2022/04/01 09:36:37;;;;;;;4.93;0.60;;;3.90;99.90;;;;;;5047022;28;20052;-59
2022/04/01 09:39:10;;;;;;;1.33;0.40;;;4.10;99.90;;;;;;5046257;28;20121;-61
2022/04/01 09:41:37;;;;;;;1.42;0.45;;;4.20;99.90;;;;;;5045871;28;20045;-58
2022/04/01 09:44:17;;;;;;;1.38;0.50;;;4.30;99.90;;;;;;5047969;28;20065;-60
2022/04/01 09:46:47;;;;;;;3.00;0.60;;;4.40;99.90;;;;;;5046114;28;20106;-61
2022/04/01 09:49:27;;;;;;;2.13;0.77;;;4.40;99.90;;;;;;5046765;28;20033;-59
2022/04/01 09:51:53;;;;;;;1.10;0.83;;;4.50;99.90;;;;;;5042435;28;20037;-59
2022/04/01 09:54:18;;;;;;;3.80;0.70;;;4.40;99.90;;;;;;5046778;28;20511;-59
2022/04/01 09:56:46;;;;;;;1.20;0.38;;;4.10;99.90;;;;;;5046148;28;20087;-60
2022/04/01 09:59:14;;;;;;;1.38;0.38;;;4.00;99.90;;;;;;5047111;28;20069;-60
2022/04/01 10:01:42;;;;;;;1.00;0.50;;;4.10;99.90;;;;;;5045600;28;20591;-61
2022/04/01 10:04:08;;;;;;;3.50;1.38;;;4.10;99.90;;;;;;5046898;28;20040;-60
2022/04/01 10:06:35;;;;;;;0.70;0.50;;;4.20;99.90;;;;;;5046329;28;20029;-59
2022/04/01 10:09:05;;;;;;;2.95;0.45;;;4.20;99.90;;;;;;5038938;28;20044;-58
2022/04/01 10:11:31;;;;;;;6.63;1.23;;;4.20;99.90;;;;;;5038042;28;20039;-59
2022/04/01 10:14:03;;;;;;;1.67;0.40;;;4.30;99.90;;;;;;5036641;28;20044;-59
2022/04/01 10:16:32;;;;;;;2.28;0.65;;;4.40;99.90;;;;;;5033125;28;20036;-60
2022/04/01 10:19:02;;;;;;;0.80;0.45;;;4.50;99.90;;;;;;5031169;28;20052;-62
2022/04/01 10:21:30;;;;;;;0.68;0.28;;;4.50;99.90;;;;;;5036603;28;20025;-60
2022/04/01 10:24:14;;;;;;;0.60;0.40;;;4.40;99.90;;;;;;5034979;28;20033;-59
2022/04/01 10:26:49;;;;;;;1.20;0.55;;;4.20;99.90;;;;;;5038152;28;20064;-61
2022/04/01 10:29:14;;;;;;;3.90;0.45;;;4.20;99.90;;;;;;5038859;28;20638;-59
2022/04/01 10:31:51;;;;;;;0.93;0.30;;;4.30;99.90;;;;;;5041597;28;20050;-60
2022/04/01 10:34:24;;;;;;;0.85;0.20;;;4.20;99.90;;;;;;5046742;28;20148;-59
2022/04/01 10:37:00;;;;;;;2.78;0.40;;;4.30;99.90;;;;;;5043806;28;20036;-59
2022/04/01 10:39:26;;;;;;;0.60;0.30;;;4.50;99.90;;;;;;5037796;28;20037;-61
2022/04/01 10:42:12;;;;;;;0.85;0.30;;;4.50;99.90;;;;;;5039183;28;20037;-59
2022/04/01 10:44:55;;;;;;;1.45;1.00;;;4.50;99.90;;;;;;5039383;28;20040;-61
2022/04/01 10:53:41;;;;;;;2.58;0.60;;;4.30;99.90;;;;;;5048016;28;20572;-60
2022/04/01 10:56:22;;;;;;;3.00;0.30;;;4.30;99.90;;;;;;5049704;28;20052;-61
2022/04/01 10:59:15;;;;;;;1.58;0.40;;;4.30;99.90;;;;;;5027780;28;20485;-59
2022/04/01 11:01:52;;;;;;;1.63;0.73;;;4.30;99.90;;;;;;5025181;28;20475;-60
2022/04/01 11:04:18;;;;;;;1.40;0.75;;;4.20;99.90;;;;;;5046331;28;20037;-59
2022/04/01 11:07:02;;;;;;;1.52;0.60;;;4.20;99.90;;;;;;5049318;28;20033;-60
2022/04/01 11:10:01;;;;;;;2.72;0.80;;;4.30;99.90;;;;;;5043175;28;20570;-59
2022/04/01 11:12:28;;;;;;;1.52;0.80;;;4.30;99.90;;;;;;5022149;28;20079;-62
2022/04/01 11:14:54;;;;;;;2.60;0.45;;;4.30;99.90;;;;;;5040101;28;20067;-61
2022/04/01 11:17:21;;;;;;;1.98;0.70;;;4.30;99.90;;;;;;5038337;28;20508;-59
2022/04/01 11:20:14;;;;;;;1.45;0.65;;;4.30;99.90;;;;;;5022638;28;20051;-61
2022/04/01 11:22:48;;;;;;;1.05;0.60;;;4.40;99.90;;;;;;5039864;28;20029;-59
2022/04/01 11:25:33;;;;;;;4.57;0.82;;;4.30;99.90;;;;;;5045720;28;20108;-59
2022/04/01 11:28:01;;;;;;;3.83;1.08;;;4.20;99.90;;;;;;5046195;28;20124;-59
2022/04/01 11:30:35;;;;;;;1.25;0.80;;;4.20;99.90;;;;;;5048296;28;20041;-61
2022/04/01 11:33:05;;;;;;;4.03;0.90;;;4.20;99.90;;;;;;5049134;28;20044;-59
2022/04/01 11:35:32;;;;;;;;;;;4.40;99.90;;;;;;5049328;28;20057;-60
2022/04/01 11:37:59;;;;;;;2.45;1.10;;;4.50;99.90;;;;;;5048269;28;19913;-59
2022/04/01 11:40:30;;;;;;;1.73;0.80;;;4.70;99.90;;;;;;5048163;28;20036;-62
2022/04/01 11:42:59;;;;;;;1.80;1.10;;;4.90;99.90;;;;;;5050313;28;20028;-60
2022/04/01 11:45:27;;;;;;;4.35;0.82;;;5.00;99.90;;;;;;5049500;28;20068;-61
2022/04/01 11:47:54;;;;;;;4.22;0.90;;;5.00;99.90;;;;;;5048585;28;20025;-63
2022/04/01 11:50:22;;;;;;;2.63;1.35;;;5.00;99.90;;;;;;5048435;28;20029;-60
2022/04/01 11:52:52;;;;;;;2.83;1.30;;;4.80;99.90;;;;;;5048421;28;20179;-59
2022/04/01 11:55:19;;;;;;;;;;;4.80;99.90;;;;;;5049726;28;20430;-61
2022/04/01 11:57:46;;;;;;;2.17;0.93;;;4.80;99.90;;;;;;5048108;28;19924;-59
2022/04/01 12:00:20;;;;;;;2.83;1.75;;;4.80;99.90;;;;;;5037854;28;20408;-59
2022/04/01 12:02:48;;;;;;;4.65;1.40;;;4.80;99.90;;;;;;5045045;28;20036;-60
2022/04/01 12:05:14;;;;;;;3.63;1.42;;;4.80;99.90;;;;;;5030998;28;20037;-59
2022/04/01 12:10:26;;;;;;;2.35;1.20;;;4.80;99.90;;;;;;5045618;28;20048;-59
2022/04/01 12:13:02;;;;;;;3.97;1.55;;;4.80;99.90;;;;;;5048260;28;20040;-60
2022/04/01 12:15:31;;;;;;;4.13;1.00;;;4.70;99.90;;;;;;5048359;28;20099;-60
2022/04/01 12:17:57;;;;;;;2.47;1.40;;;4.70;99.90;;;;;;5047794;28;20114;-59
2022/04/01 12:20:23;;;;;;;3.13;1.38;;;4.60;99.90;;;;;;5047763;28;20436;-63
2022/04/01 12:22:51;;;;;;;5.00;1.88;;;4.60;99.90;;;;;;5048267;28;20499;-59
2022/04/01 12:25:17;;;;;;;2.92;1.50;;;4.70;99.90;;;;;;5048230;28;20072;-61
2022/04/01 12:28:01;;;;;;;3.72;1.50;;;4.70;99.90;;;;;;5047577;28;20036;-60
2022/04/01 12:30:38;;;;;;;4.68;1.38;;;4.50;99.90;;;;;;5045569;28;20046;-60
2022/04/01 12:33:09;;;;;;;3.90;1.40;;;4.40;99.90;;;;;;5048042;28;20094;-58
2022/04/01 12:35:46;;;;;;;9.73;2.03;;;4.30;99.90;;;;;;5047789;28;20033;-59
2022/04/01 12:38:11;;;;;;;2.63;1.42;;;4.30;99.90;;;;;;5043868;28;20041;-61
2022/04/01 12:40:43;;;;;;;2.90;1.55;;;4.40;99.90;;;;;;5047335;28;20575;-61
2022/04/01 12:43:28;;;;;;;3.55;1.70;;;4.50;99.90;;;;;;5044637;28;20053;-60
2022/04/01 12:46:01;;;;;;;2.45;1.30;;;4.40;99.90;;;;;;5045893;28;20044;-59
2022/04/01 12:48:28;;;;;;;5.53;1.85;;;4.50;99.90;;;;;;5046712;28;20049;-61
2022/04/01 12:50:57;;;;;;;5.20;2.55;;;4.50;99.90;;;;;;5046450;28;20116;-61
2022/04/01 12:53:23;;;;;;;2.63;1.33;;;4.60;99.90;;;;;;5047618;28;20095;-59
2022/04/01 12:55:49;;;;;;;3.22;1.42;;;4.60;99.90;;;;;;5047211;28;20051;-60
2022/04/01 12:58:16;;;;;;;4.22;1.90;;;4.60;99.90;;;;;;5047455;28;20044;-60
2022/04/01 13:00:42;;;;;;;3.83;1.15;;;4.60;99.90;;;;;;5028551;28;20045;-60
2022/04/01 13:03:08;;;;;;;3.90;1.88;;;4.70;99.90;;;;;;5047530;28;20102;-59
2022/04/01 13:05:34;;;;;;;4.13;1.23;;;4.90;99.90;;;;;;5047280;28;20032;-59
2022/04/01 13:08:00;;;;;;;2.55;1.30;;;4.80;99.90;;;;;;5046940;28;20036;-60
2022/04/01 13:10:26;;;;;;;1.88;1.20;;;4.70;99.90;;;;;;5046782;28;20036;-59
2022/04/01 13:12:52;;;;;;;1.02;0.77;;;4.60;99.90;;;;;;5046809;28;20041;-60
2022/04/01 13:15:27;;;;;;;2.50;1.00;;;4.50;99.90;;;;;;5047602;28;20120;-60
2022/04/01 13:17:57;;;;;;;3.72;1.15;;;4.50;99.90;;;;;;5046874;28;20033;-60
2022/04/01 13:20:26;;;;;;;1.63;0.80;;;4.60;99.90;;;;;;5046792;28;20187;-62
2022/04/01 13:22:53;;;;;;;14.93;1.27;;;4.70;99.90;;;;;;5046966;28;20037;-60
2022/04/01 13:25:18;;;;;;;2.25;0.90;;;4.80;99.90;;;;;;5047623;28;20048;-60